Time;durP1;ratioP1;P1;durP2;ratioP2;P2;SDS_P1;SDS_P2;PMS_P1;PMS_P2;Temp;Humidity;BMP_temperature;BMP_pressure;BME280_temperature;BME280_humidity;BME280_pressure;Samples;Min_cycle;Max_cycle;Signal;HPM_P1;HPM_P2
2021/09/09 00:02:27;;;;;;;12.20;7.05;;;;;;;8.29;64.69;101111.02;1653592;87;21331;-76
2021/09/09 00:05:35;;;;;;;17.20;7.12;;;;;;;8.16;65.30;101108.56;1653614;87;21303;-76
2021/09/09 00:08:40;;;;;;;18.52;8.10;;;;;;;8.09;65.79;101111.98;1654884;87;21324;-76
2021/09/09 00:11:47;;;;;;;17.82;7.97;;;;;;;8.04;66.13;101111.04;1653754;87;21331;-76
2021/09/09 00:14:53;;;;;;;16.57;7.55;;;;;;;8.04;66.41;101104.23;1653616;87;21197;-77
2021/09/09 00:18:01;;;;;;;16.73;7.75;;;;;;;8.05;66.60;101103.25;1653555;87;21625;-76
2021/09/09 00:21:07;;;;;;;21.10;8.60;;;;;;;8.08;66.64;101106.17;1654895;87;21348;-77
2021/09/09 00:24:13;;;;;;;16.15;7.22;;;;;;;8.07;66.66;101105.83;1649117;86;21339;-76
2021/09/09 00:27:19;;;;;;;16.62;7.75;;;;;;;8.06;66.40;101102.75;1630670;88;21196;-76
2021/09/09 00:30:26;;;;;;;17.87;6.80;;;;;;;8.02;66.29;101098.07;1631668;88;21311;-76
2021/09/09 00:33:31;;;;;;;19.73;8.13;;;;;;;8.01;66.35;101092.27;1630900;88;21327;-76
2021/09/09 00:36:38;;;;;;;18.62;8.23;;;;;;;7.99;66.91;101098.34;1631230;88;21239;-76
2021/09/09 00:39:44;;;;;;;17.00;7.62;;;;;;;8.05;66.97;101099.16;1631684;88;21864;-76
2021/09/09 00:42:49;;;;;;;16.67;7.80;;;;;;;8.08;66.59;101096.13;1630550;88;21228;-77
2021/09/09 00:45:59;;;;;;;21.48;8.73;;;;;;;8.10;66.46;101093.30;1631567;88;21303;-76
2021/09/09 00:49:06;;;;;;;41.98;8.38;;;;;;;8.16;66.51;101094.94;1630440;88;21765;-76
2021/09/09 00:52:14;;;;;;;34.63;8.73;;;;;;;8.19;66.60;101091.08;1630811;88;21334;-76
2021/09/09 00:55:20;;;;;;;33.23;9.00;;;;;;;8.21;67.23;101091.78;1631690;88;21319;-76
2021/09/09 00:58:25;;;;;;;26.10;7.95;;;;;;;8.24;67.47;101096.11;1630438;88;21351;-76
2021/09/09 01:01:30;;;;;;;23.75;8.63;;;;;;;8.27;67.47;101096.66;1631476;88;21326;-76
2021/09/09 01:04:35;;;;;;;31.10;8.35;;;;;;;8.29;67.80;101094.67;1630634;88;21338;-77
2021/09/09 01:07:42;;;;;;;23.70;7.55;;;;;;;8.32;68.08;101094.36;1630385;87;21818;-76
2021/09/09 01:10:47;;;;;;;27.67;8.48;;;;;;;8.33;68.96;101090.66;1631882;88;21739;-76
2021/09/09 01:13:59;;;;;;;25.00;8.48;;;;;;;8.39;69.80;101096.07;1631161;88;21172;-76
2021/09/09 01:17:04;;;;;;;24.77;8.93;;;;;;;8.43;70.13;101089.33;1631834;88;21335;-76
2021/09/09 01:20:08;;;;;;;27.37;9.15;;;;;;;8.44;70.36;101089.17;1631745;88;21330;-76
2021/09/09 01:23:15;;;;;;;25.77;8.45;;;;;;;8.47;70.96;101083.06;1631456;88;21223;-76
2021/09/09 01:26:19;;;;;;;23.20;9.35;;;;;;;8.48;71.28;101079.36;1646099;86;21299;-76
2021/09/09 01:29:25;;;;;;;17.92;7.90;;;;;;;8.52;71.99;101075.34;1653755;87;21360;-76
2021/09/09 01:32:30;;;;;;;18.60;7.87;;;;;;;8.52;71.23;101073.98;1654050;87;21897;-77
2021/09/09 01:35:36;;;;;;;20.32;8.65;;;;;;;8.50;69.96;101069.16;1654990;87;21307;-76
2021/09/09 01:38:41;;;;;;;22.93;9.75;;;;;;;8.50;71.58;101069.16;1654946;87;21331;-76
2021/09/09 01:41:47;;;;;;;23.67;9.15;;;;;;;8.51;71.64;101070.36;1654498;87;21749;-76
2021/09/09 01:44:52;;;;;;;26.75;8.30;;;;;;;8.55;72.79;101065.48;1653854;87;21402;-77
2021/09/09 01:47:57;;;;;;;19.75;8.35;;;;;;;8.56;71.85;101064.00;1653771;87;21363;-76
2021/09/09 01:51:02;;;;;;;22.20;8.53;;;;;;;8.59;73.91;101061.47;1654958;87;21817;-77
2021/09/09 01:54:07;;;;;;;22.02;8.38;;;;;;;8.63;72.58;101061.03;1654488;87;21177;-76
2021/09/09 01:57:12;;;;;;;21.68;7.65;;;;;;;8.61;71.83;101053.98;1654233;87;21216;-76
2021/09/09 02:00:18;;;;;;;20.70;7.80;;;;;;;8.55;69.61;101056.80;1654981;87;21276;-76
2021/09/09 02:03:24;;;;;;;24.77;10.20;;;;;;;8.44;68.75;101051.00;1655055;87;21327;-76
2021/09/09 02:06:30;;;;;;;20.02;9.35;;;;;;;8.33;68.58;101049.77;1655037;87;21233;-76
2021/09/09 02:09:34;;;;;;;26.68;10.28;;;;;;;8.22;68.53;101049.89;1655042;87;21370;-77
2021/09/09 02:12:40;;;;;;;25.60;10.48;;;;;;;8.11;68.46;101044.09;1653578;86;21739;-76
2021/09/09 02:15:45;;;;;;;23.45;9.83;;;;;;;8.02;68.65;101042.72;1653860;87;21854;-76
2021/09/09 02:18:53;;;;;;;21.30;9.58;;;;;;;7.94;69.57;101036.11;1654872;87;21311;-76
2021/09/09 02:21:59;;;;;;;26.20;9.75;;;;;;;7.93;70.59;101041.20;1654283;87;21335;-76
2021/09/09 02:25:05;;;;;;;25.43;9.08;;;;;;;7.97;73.13;101043.15;1653983;87;21339;-76
2021/09/09 02:28:12;;;;;;;27.05;10.78;;;;;;;8.00;72.68;101037.42;1657579;86;21339;-76
2021/09/09 02:31:17;;;;;;;20.43;8.85;;;;;;;7.97;71.33;101036.34;1659768;86;21343;-76
2021/09/09 02:34:21;;;;;;;25.75;9.45;;;;;;;7.90;70.88;101038.78;1659772;86;21913;-76
2021/09/09 02:37:26;;;;;;;16.62;7.53;;;;;;;7.90;72.08;101035.16;1659134;86;21334;-76
2021/09/09 02:40:32;;;;;;;14.65;7.90;;;;;;;7.92;70.98;101035.40;1659935;86;21257;-76
2021/09/09 02:43:37;;;;;;;19.92;8.35;;;;;;;7.91;70.39;101033.69;1659228;86;21387;-76
2021/09/09 02:46:43;;;;;;;27.25;8.13;;;;;;;7.87;70.26;101036.33;1658473;86;21240;-76
2021/09/09 02:49:50;;;;;;;21.20;8.38;;;;;;;7.83;70.34;101039.47;1658764;86;21178;-76
2021/09/09 02:52:56;;;;;;;25.72;8.75;;;;;;;7.77;70.31;101041.41;1658648;86;21810;-76
2021/09/09 02:56:01;;;;;;;17.15;8.55;;;;;;;7.68;70.30;101033.06;1658861;86;21241;-76
2021/09/09 02:59:05;;;;;;;23.77;9.23;;;;;;;7.62;70.40;101036.83;1659125;86;21327;-76
2021/09/09 03:02:12;;;;;;;29.35;11.20;;;;;;;7.57;71.09;101037.75;1658366;86;21295;-76
2021/09/09 03:05:18;;;;;;;22.13;10.28;;;;;;;7.57;71.27;101035.03;1659495;86;21346;-76
2021/09/09 03:08:25;;;;;;;27.52;9.13;;;;;;;7.55;71.37;101040.63;1659953;86;21363;-77
2021/09/09 03:11:31;;;;;;;19.67;9.08;;;;;;;7.54;71.28;101036.69;1659473;86;21347;-76
2021/09/09 03:14:36;;;;;;;20.95;8.35;;;;;;;7.55;71.17;101039.77;1632287;88;21334;-76
2021/09/09 03:17:40;;;;;;;28.67;8.90;;;;;;;7.58;71.65;101039.50;1631988;88;21236;-76
2021/09/09 03:20:46;;;;;;;19.12;7.95;;;;;;;7.62;71.44;101040.45;1634817;86;21272;-76
2021/09/09 03:23:52;;;;;;;20.05;8.53;;;;;;;7.64;71.59;101038.43;1640792;86;21291;-77
2021/09/09 03:26:56;;;;;;;28.73;8.33;;;;;;;7.69;71.59;101042.09;1656703;86;21212;-76
2021/09/09 03:30:02;;;;;;;24.35;8.80;;;;;;;7.71;71.55;101048.25;1659497;86;21291;-76
2021/09/09 03:33:08;;;;;;;24.25;8.43;;;;;;;7.75;71.67;101046.11;1658612;86;21366;-76
2021/09/09 03:36:15;;;;;;;28.42;8.75;;;;;;;7.82;71.88;101049.51;1632322;88;21935;-76
2021/09/09 03:39:20;;;;;;;17.05;8.90;;;;;;;7.92;71.92;101057.19;1633615;86;21287;-76
2021/09/09 03:42:26;;;;;;;23.57;8.70;;;;;;;8.04;71.50;101058.41;1632341;88;21220;-76
2021/09/09 03:45:34;;;;;;;19.77;8.70;;;;;;;8.15;71.38;101059.16;1633825;86;21354;-76
2021/09/09 03:48:40;;;;;;;32.15;12.82;;;;;;;8.28;71.44;101062.97;1675537;85;21335;-76
2021/09/09 03:51:47;;;;;;;48.20;18.92;;;;;;;8.44;71.46;101060.55;1675349;85;21791;-76
2021/09/09 03:54:53;;;;;;;40.85;18.15;;;;;;;8.64;71.40;101064.62;1657011;85;21355;-76
2021/09/09 03:57:58;;;;;;;61.02;25.80;;;;;;;8.83;70.95;101071.40;1631942;88;21405;-77
2021/09/09 04:01:02;;;;;;;83.17;36.03;;;;;;;9.02;70.81;101072.37;1634815;86;21318;-76
2021/09/09 04:04:09;;;;;;;87.15;38.70;;;;;;;9.20;70.38;101070.59;1651344;87;21193;-76
2021/09/09 04:07:14;;;;;;;81.82;38.28;;;;;;;9.38;70.05;101074.27;1650125;87;21311;-76
2021/09/09 04:10:21;;;;;;;89.13;37.98;;;;;;;9.50;69.63;101080.38;1652581;86;21273;-76
2021/09/09 04:13:25;;;;;;;80.20;36.55;;;;;;;9.60;69.39;101081.73;1638168;86;21311;-77
2021/09/09 04:16:24;;;;;;;54.83;28.35;;;;;;;9.70;69.24;101079.80;1640648;86;21303;-77
2021/09/09 04:19:30;;;;;;;61.83;26.20;;;;;;;9.83;69.00;101081.64;1659857;86;21316;-77
2021/09/09 04:22:35;;;;;;;43.58;18.80;;;;;;;10.01;68.71;101084.41;1645195;85;21210;-76
2021/09/09 04:25:41;;;;;;;30.70;12.03;;;;;;;10.21;68.36;101083.28;1640139;86;21201;-77
2021/09/09 04:28:47;;;;;;;26.90;10.72;;;;;;;10.42;67.82;101083.51;1645435;86;21374;-77
2021/09/09 04:31:52;;;;;;;26.17;10.48;;;;;;;10.65;67.41;101082.52;1646349;86;21295;-78
2021/09/09 04:34:58;;;;;;;35.52;11.73;;;;;;;10.84;67.08;101078.73;1647467;86;21288;-77
2021/09/09 04:38:04;;;;;;;27.40;10.78;;;;;;;11.06;66.69;101076.85;1643370;86;21659;-77
2021/09/09 04:41:09;;;;;;;24.70;10.93;;;;;;;11.29;66.23;101071.66;1645051;86;21342;-77
2021/09/09 04:44:14;;;;;;;29.00;10.18;;;;;;;11.51;65.66;101068.88;1643181;85;21331;-76
2021/09/09 04:47:15;;;;;;;42.62;9.75;;;;;;;11.76;65.17;101069.83;1645711;86;21201;-77
2021/09/09 04:50:21;;;;;;;24.12;8.68;;;;;;;12.02;64.44;101072.53;1642592;86;21216;-77
2021/09/09 04:53:26;;;;;;;20.92;6.95;;;;;;;12.30;62.78;101075.84;1643468;85;21201;-77
2021/09/09 04:56:31;;;;;;;16.27;7.50;;;;;;;12.54;62.08;101075.88;1642643;86;21181;-78
2021/09/09 04:59:37;;;;;;;15.25;7.62;;;;;;;12.76;61.48;101072.11;1640691;86;21371;-76
2021/09/09 05:02:42;;;;;;;22.30;8.30;;;;;;;12.99;60.87;101075.02;1646292;86;21370;-77
2021/09/09 05:05:47;;;;;;;27.17;8.05;;;;;;;13.20;60.18;101073.08;1645097;85;21327;-76
2021/09/09 05:08:52;;;;;;;21.17;8.58;;;;;;;13.40;59.34;101070.83;1644158;85;21200;-76
2021/09/09 05:11:59;;;;;;;23.85;8.95;;;;;;;13.59;58.28;101066.81;1643982;86;21612;-76
2021/09/09 05:15:06;;;;;;;18.62;8.75;;;;;;;13.79;57.01;101067.59;1640593;85;21647;-76
2021/09/09 05:18:12;;;;;;;24.95;9.60;;;;;;;13.99;56.52;101058.38;1638212;85;21815;-77
2021/09/09 05:21:18;;;;;;;27.58;10.82;;;;;;;14.20;55.54;101057.72;1639347;86;21216;-77
2021/09/09 05:24:25;;;;;;;39.40;11.70;;;;;;;14.41;54.60;101063.96;1639009;86;21917;-76
2021/09/09 05:27:30;;;;;;;30.72;14.00;;;;;;;14.63;53.81;101058.13;1640396;86;21344;-76
2021/09/09 05:30:37;;;;;;;33.90;15.18;;;;;;;14.86;51.52;101057.25;1633512;85;21185;-78
2021/09/09 05:33:42;;;;;;;37.28;14.75;;;;;;;15.06;49.47;101059.30;1635636;86;21193;-77
2021/09/09 05:36:48;;;;;;;43.48;15.45;;;;;;;15.27;48.25;101061.31;1629916;85;21249;-76
2021/09/09 05:39:54;;;;;;;41.68;14.43;;;;;;;15.45;47.50;101060.09;1637660;86;21703;-77
2021/09/09 05:43:00;;;;;;;38.35;14.28;;;;;;;15.67;47.10;101059.70;1633665;86;21212;-76
2021/09/09 05:46:07;;;;;;;37.80;10.98;;;;;;;15.87;46.61;101059.95;1631360;86;21555;-76
2021/09/09 05:49:12;;;;;;;31.82;9.30;;;;;;;16.08;45.50;101059.45;1633527;87;21824;-76
2021/09/09 05:52:19;;;;;;;21.80;8.58;;;;;;;16.29;45.10;101066.08;1635074;85;21989;-77
2021/09/09 05:55:25;;;;;;;24.63;8.78;;;;;;;16.46;45.02;101066.14;1639050;85;22243;-77
2021/09/09 05:58:32;;;;;;;13.88;6.97;;;;;;;16.61;43.94;101062.81;1634017;85;21841;-76
2021/09/09 06:01:37;;;;;;;17.95;8.20;;;;;;;16.78;43.18;101063.94;1636346;86;21343;-76
2021/09/09 06:04:44;;;;;;;28.30;9.68;;;;;;;16.91;42.27;101064.59;1633935;85;21826;-76
2021/09/09 06:07:50;;;;;;;28.15;9.55;;;;;;;17.06;42.19;101060.67;1632381;85;21176;-77
2021/09/09 06:10:56;;;;;;;19.77;8.33;;;;;;;17.24;41.86;101055.17;1636322;85;22124;-77
2021/09/09 06:14:02;;;;;;;27.32;9.00;;;;;;;17.40;41.19;101053.46;1634541;85;21359;-83
2021/09/09 06:17:09;;;;;;;22.13;8.90;;;;;;;17.52;40.41;101057.37;1637317;85;21294;-81
2021/09/09 06:20:20;;;;;;;23.98;9.43;;;;;;;17.66;40.41;101056.07;1636194;85;21245;-82
2021/09/09 06:23:27;;;;;;;25.35;9.28;;;;;;;17.79;40.30;101055.64;1630811;85;21181;-76
2021/09/09 06:26:34;;;;;;;16.80;8.63;;;;;;;17.95;40.28;101056.34;1631867;85;21710;-76
2021/09/09 06:29:39;;;;;;;24.95;8.55;;;;;;;18.12;40.11;101062.70;1634542;85;21315;-76
2021/09/09 06:32:45;;;;;;;21.12;8.10;;;;;;;18.27;39.28;101054.75;1643919;84;21853;-76
2021/09/09 06:35:51;;;;;;;20.72;8.18;;;;;;;18.38;39.07;101052.75;1657932;84;21196;-76
2021/09/09 06:38:55;;;;;;;25.25;9.23;;;;;;;18.46;38.68;101053.09;1659027;85;21248;-75
2021/09/09 06:42:00;;;;;;;15.20;7.75;;;;;;;18.54;38.40;101056.52;1657409;84;21216;-75
2021/09/09 06:45:05;;;;;;;16.87;6.72;;;;;;;18.64;37.60;101054.19;1655552;84;21546;-75
2021/09/09 06:48:11;;;;;;;15.72;7.92;;;;;;;18.77;37.30;101049.73;1647165;84;21903;-76
2021/09/09 06:51:21;;;;;;;18.52;7.67;;;;;;;18.94;37.41;101051.03;1635143;85;21235;-81
2021/09/09 06:54:26;;;;;;;15.18;5.92;;;;;;;19.09;37.51;101056.35;1636388;87;21204;-82
2021/09/09 06:57:32;;;;;;;16.73;7.40;;;;;;;19.23;37.40;101051.11;1629857;87;21243;-80
2021/09/09 07:00:38;;;;;;;14.58;5.95;;;;;;;19.37;36.57;101049.17;1636726;85;21505;-79
2021/09/09 07:03:44;;;;;;;14.35;7.35;;;;;;;19.46;36.13;101050.64;1649745;85;22241;-79
2021/09/09 07:06:49;;;;;;;21.85;7.65;;;;;;;19.53;35.94;101054.27;1649166;84;21244;-81
2021/09/09 07:09:54;;;;;;;18.15;6.97;;;;;;;19.62;35.51;101056.31;1659650;85;21732;-79
2021/09/09 07:12:59;;;;;;;18.48;6.80;;;;;;;19.62;35.05;101054.39;1657449;85;21209;-81
2021/09/09 07:16:05;;;;;;;14.20;5.58;;;;;;;19.65;35.26;101041.45;1663474;84;21200;-79
2021/09/09 07:19:11;;;;;;;13.65;6.42;;;;;;;19.73;34.36;101050.08;1648396;84;21206;-78
2021/09/09 07:22:17;;;;;;;12.47;6.03;;;;;;;19.79;33.91;101052.51;1659553;84;21825;-79
2021/09/09 07:25:22;;;;;;;13.05;6.35;;;;;;;19.84;33.79;101049.92;1648358;86;21363;-80
2021/09/09 07:28:28;;;;;;;15.72;6.28;;;;;;;19.88;33.51;101052.04;1647420;84;21334;-79
2021/09/09 07:31:34;;;;;;;11.55;5.45;;;;;;;19.94;34.27;101054.47;1637240;85;21225;-79
2021/09/09 07:34:40;;;;;;;9.10;5.87;;;;;;;20.04;33.89;101053.48;1635832;87;22066;-80
2021/09/09 07:37:46;;;;;;;11.65;5.03;;;;;;;20.09;33.81;101052.28;1633002;86;21584;-83
2021/09/09 07:40:51;;;;;;;17.50;6.22;;;;;;;20.15;32.95;101051.94;1635450;87;21338;-82
2021/09/09 07:43:57;;;;;;;8.18;4.33;;;;;;;20.21;33.17;101044.63;1632405;85;21216;-83
2021/09/09 07:47:02;;;;;;;12.78;6.30;;;;;;;20.28;32.62;101053.26;1628847;85;21515;-81
2021/09/09 07:50:10;;;;;;;11.57;5.60;;;;;;;20.34;33.11;101046.80;1642721;85;21694;-80
2021/09/09 07:53:15;;;;;;;13.90;5.45;;;;;;;20.42;32.82;101053.49;1637250;86;21351;-81
2021/09/09 07:56:20;;;;;;;10.68;5.12;;;;;;;20.47;32.13;101054.25;1641479;85;21493;-80
2021/09/09 07:59:27;;;;;;;8.15;4.75;;;;;;;20.44;31.87;101044.92;1635595;85;21329;-80
2021/09/09 08:02:32;;;;;;;8.70;4.67;;;;;;;20.44;32.08;101047.70;1634408;85;21366;-80
2021/09/09 08:05:38;;;;;;;11.28;4.90;;;;;;;20.53;32.56;101037.20;1633315;85;21205;-80
2021/09/09 08:08:44;;;;;;;8.75;4.33;;;;;;;20.64;31.99;101038.71;1634618;87;21315;-81
2021/09/09 08:11:50;;;;;;;12.85;3.95;;;;;;;20.75;31.69;101035.77;1629984;85;21246;-81
2021/09/09 08:14:57;;;;;;;7.90;3.27;;;;;;;20.74;30.53;101038.75;1643226;86;21192;-82
2021/09/09 08:18:09;;;;;;;;;;;;;;;20.68;30.87;101036.34;1645179;87;21540;-86
2021/09/09 08:21:17;;;;;;;8.00;4.12;;;;;;;20.64;31.81;101028.98;1635087;85;21087;-77
2021/09/09 08:24:31;;;;;;;8.30;4.17;;;;;;;20.72;31.78;101029.80;1635448;86;21177;-78
2021/09/09 08:27:37;;;;;;;7.12;3.90;;;;;;;20.78;31.32;101028.88;1633025;85;21335;-78
2021/09/09 08:30:42;;;;;;;7.85;4.10;;;;;;;20.79;31.18;101025.02;1632917;85;21670;-82
2021/09/09 08:33:48;;;;;;;5.97;3.90;;;;;;;20.79;31.26;101018.07;1629615;86;21303;-84
2021/09/09 08:36:58;;;;;;;8.70;4.08;;;;;;;20.83;31.21;101019.33;1609218;86;21441;-78
2021/09/09 08:40:05;;;;;;;7.67;3.20;;;;;;;20.90;31.36;101016.81;1612238;86;21195;-78
2021/09/09 08:43:14;;;;;;;5.12;2.92;;;;;;;20.96;30.75;101008.09;1626139;86;21180;-78
2021/09/09 08:46:20;;;;;;;4.67;2.75;;;;;;;21.03;30.50;101008.02;1614879;88;22237;-78
2021/09/09 08:49:33;;;;;;;6.97;3.60;;;;;;;21.04;30.60;100998.62;1612253;86;21260;-78
2021/09/09 08:52:41;;;;;;;6.12;3.33;;;;;;;21.06;30.61;100997.30;1613451;88;21473;-78
2021/09/09 08:55:50;;;;;;;16.67;3.58;;;;;;;21.03;29.67;100990.81;1615953;86;21189;-78
2021/09/09 08:58:55;;;;;;;;;;;;;;;21.00;30.23;100992.66;1615294;88;22256;-83
2021/09/09 09:02:15;;;;;;;7.25;3.60;;;;;;;20.99;29.53;100992.89;1610213;88;20335;-86
2021/09/09 09:05:20;;;;;;;7.42;3.20;;;;;;;20.95;29.80;100997.20;1609819;88;21223;-86
2021/09/09 09:08:30;;;;;;;8.93;2.90;;;;;;;20.92;30.08;100992.94;1612901;86;21200;-87
2021/09/09 09:11:42;;;;;;;5.70;3.37;;;;;;;20.98;30.17;100988.39;1610032;86;21246;-83
2021/09/09 09:14:48;;;;;;;5.67;2.83;;;;;;;21.02;29.54;100990.48;1608697;88;21335;-83
2021/09/09 09:18:10;;;;;;;4.80;3.10;;;;;;;21.04;29.39;100982.78;1609776;88;21248;-83
2021/09/09 09:21:16;;;;;;;6.83;3.10;;;;;;;21.06;29.17;100976.98;1606487;88;21216;-85
2021/09/09 09:24:25;;;;;;;6.67;3.45;;;;;;;21.03;29.47;100976.91;1611026;86;21186;-84
2021/09/09 09:27:32;;;;;;;5.03;3.00;;;;;;;21.05;29.38;100975.28;1631362;85;21259;-84
2021/09/09 09:30:38;;;;;;;11.33;2.87;;;;;;;21.10;29.37;100967.95;1615228;86;21264;-84
2021/09/09 09:33:50;;;;;;;4.33;3.00;;;;;;;21.19;29.51;100967.96;1612591;86;22207;-77
2021/09/09 09:36:50;;;;;;;3.92;2.52;;;;;;;21.25;29.08;100966.17;1631225;85;21208;-78
2021/09/09 09:39:57;;;;;;;5.15;2.77;;;;;;;21.29;29.03;100956.84;1603509;85;21177;-78
2021/09/09 09:43:04;;;;;;;7.47;2.70;;;;;;;21.32;29.30;100956.42;1630864;85;21208;-78
2021/09/09 09:46:11;;;;;;;6.12;3.30;;;;;;;21.42;29.64;100956.72;1632989;85;21979;-78
2021/09/09 09:49:29;;;;;;;3.50;2.72;;;;;;;21.53;28.97;100960.11;1633768;85;21208;-77
2021/09/09 09:52:36;;;;;;;8.25;3.30;;;;;;;21.61;29.11;100954.23;1634744;85;21217;-76
2021/09/09 09:55:50;;;;;;;7.17;3.08;;;;;;;21.67;29.12;100952.44;1638275;86;21296;-78
2021/09/09 09:58:55;;;;;;;8.40;3.33;;;;;;;21.74;29.33;100952.34;1634444;85;21461;-76
2021/09/09 10:02:00;;;;;;;8.23;2.55;;;;;;;21.81;28.83;100944.22;1633426;86;21327;-78
2021/09/09 10:05:05;;;;;;;6.78;2.90;;;;;;;21.81;28.69;100950.33;1632854;86;21306;-77
2021/09/09 10:08:13;;;;;;;8.30;3.00;;;;;;;21.80;28.56;100951.42;1631709;85;21408;-76
2021/09/09 10:11:12;;;;;;;8.50;3.20;;;;;;;21.75;28.49;100941.53;1633905;85;21721;-77
2021/09/09 10:14:25;;;;;;;10.30;3.00;;;;;;;21.71;28.76;100944.48;1631687;86;21200;-77
2021/09/09 10:17:33;;;;;;;6.60;2.87;;;;;;;21.69;28.60;100940.00;1643255;85;21388;-80
2021/09/09 10:20:42;;;;;;;5.15;2.85;;;;;;;21.66;28.81;100941.00;1658922;84;21414;-76
2021/09/09 10:24:09;;;;;;;13.20;3.15;;;;;;;21.65;28.74;100934.59;1637659;85;21351;-82
2021/09/09 10:27:35;;;;;;;7.60;3.62;;;;;;;21.68;28.30;100929.92;1621680;85;21564;-78
2021/09/09 10:30:41;;;;;;;5.92;3.12;;;;;;;21.66;27.80;100923.75;1632758;85;21990;-79
2021/09/09 10:33:54;;;;;;;6.08;2.98;;;;;;;21.65;27.83;100924.00;1634457;85;21339;-77
2021/09/09 10:36:59;;;;;;;;;;;;;;;21.65;27.54;100910.08;1613454;86;21523;-77
2021/09/09 10:40:05;;;;;;;6.75;2.70;;;;;;;21.69;27.94;100907.98;1605666;88;20314;-76
2021/09/09 10:43:37;;;;;;;7.95;3.80;;;;;;;21.75;27.93;100902.56;1613414;87;22280;-77
2021/09/09 10:46:48;;;;;;;6.65;2.90;;;;;;;21.78;28.07;100898.73;1613365;86;21295;-80
2021/09/09 10:49:56;;;;;;;;;;;;;;;21.84;27.88;100896.42;1601482;87;21243;-79
2021/09/09 10:53:14;;;;;;;6.37;3.08;;;;;;;21.87;27.82;100889.52;1588299;87;20243;-79
2021/09/09 10:56:28;;;;;;;4.62;3.22;;;;;;;21.85;27.46;100880.56;1605473;87;21621;-85
2021/09/09 10:59:34;;;;;;;15.70;3.40;;;;;;;21.81;27.19;100876.55;1597918;87;21504;-80
2021/09/09 11:02:42;;;;;;;8.18;3.02;;;;;;;21.80;27.13;100876.25;1587905;87;21810;-86
2021/09/09 11:06:01;;;;;;;7.97;3.08;;;;;;;21.82;27.04;100865.16;1590941;88;21465;-79
2021/09/09 11:09:06;;;;;;;6.30;2.60;;;;;;;21.88;27.09;100864.23;1622565;86;21652;-79
2021/09/09 11:12:13;;;;;;;6.00;3.55;;;;;;;21.89;26.95;100859.51;1606174;88;21212;-86
2021/09/09 11:15:38;;;;;;;;;;;;;;;;;;;;;
2021/09/09 11:18:47;;;;;;;8.15;3.10;;;;;;;21.97;27.48;100848.55;1840950;76;22206;-77
2021/09/09 11:21:56;;;;;;;7.83;3.02;;;;;;;21.95;27.80;100847.41;1780274;77;21157;-77
2021/09/09 11:25:18;;;;;;;7.72;2.75;;;;;;;21.99;27.43;100845.00;1796318;77;21307;-77
2021/09/09 11:28:36;;;;;;;6.95;3.02;;;;;;;22.02;27.52;100837.03;1815458;77;21295;-78
2021/09/09 11:31:55;;;;;;;7.17;3.08;;;;;;;22.06;28.09;100833.20;1798071;77;21471;-77
2021/09/09 11:35:13;;;;;;;5.87;3.00;;;;;;;22.12;27.78;100823.94;1812319;77;21184;-79
2021/09/09 11:38:18;;;;;;;3.98;2.95;;;;;;;22.15;27.94;100815.92;1815265;77;21642;-77
2021/09/09 11:41:26;;;;;;;6.83;3.60;;;;;;;22.19;26.89;100813.51;1812759;77;21868;-79
2021/09/09 11:44:34;;;;;;;7.12;2.60;;;;;;;22.23;26.68;100809.70;1817482;77;21869;-77
2021/09/09 11:47:42;;;;;;;5.37;3.20;;;;;;;22.26;26.94;100812.02;1812813;77;21200;-77
2021/09/09 11:50:56;;;;;;;6.72;3.20;;;;;;;22.31;27.16;100809.35;1812922;77;21291;-77
2021/09/09 11:54:00;;;;;;;7.40;2.95;;;;;;;22.36;27.22;100808.92;1812228;77;22182;-78
2021/09/09 11:57:19;;;;;;;5.42;3.10;;;;;;;22.38;27.13;100796.97;1814405;77;21374;-77
2021/09/09 12:00:23;;;;;;;7.20;2.95;;;;;;;22.39;27.27;100795.88;1754423;80;21404;-77
2021/09/09 12:03:28;;;;;;;9.50;3.17;;;;;;;22.38;26.76;100794.73;1719882;81;21251;-78
2021/09/09 12:06:35;;;;;;;5.90;3.05;;;;;;;22.36;27.26;100792.20;1741321;81;21187;-78
2021/09/09 12:09:41;;;;;;;4.53;2.77;;;;;;;22.35;27.25;100784.94;1744510;81;21446;-78
2021/09/09 12:12:47;;;;;;;11.63;3.27;;;;;;;22.37;27.52;100783.30;1745632;81;21454;-78
2021/09/09 12:15:53;;;;;;;11.65;3.72;;;;;;;22.39;27.02;100782.49;1733933;81;21793;-78
2021/09/09 12:19:11;;;;;;;8.75;3.45;;;;;;;22.39;26.80;100783.88;1739780;80;21254;-78
2021/09/09 12:22:17;;;;;;;6.00;3.30;;;;;;;22.38;26.70;100782.20;1776279;79;21295;-78
2021/09/09 12:25:41;;;;;;;14.20;3.02;;;;;;;22.35;26.59;100772.95;1778856;79;21180;-78
2021/09/09 12:28:47;;;;;;;7.05;2.72;;;;;;;22.32;26.74;100766.45;1780029;79;21188;-78
2021/09/09 12:31:57;;;;;;;6.37;3.00;;;;;;;22.34;26.92;100768.44;1772550;79;21237;-78
2021/09/09 12:35:25;;;;;;;10.80;3.10;;;;;;;22.33;27.24;100761.18;1779234;79;21338;-77
2021/09/09 12:38:50;;;;;;;12.68;3.42;;;;;;;22.34;26.88;100762.87;1780557;79;21155;-78
2021/09/09 12:41:55;;;;;;;10.05;2.83;;;;;;;22.32;27.00;100758.09;1775908;79;21129;-78
2021/09/09 12:45:00;;;;;;;9.70;3.15;;;;;;;22.30;26.91;100758.35;1774631;79;21275;-77
2021/09/09 12:48:18;;;;;;;8.05;3.00;;;;;;;22.28;27.02;100754.09;1787621;79;21213;-77
2021/09/09 12:51:24;;;;;;;6.92;3.70;;;;;;;22.27;27.22;100752.41;1783342;79;22189;-78
2021/09/09 12:54:30;;;;;;;4.55;2.83;;;;;;;22.27;27.44;100754.64;1741927;79;21137;-77
2021/09/09 12:57:38;;;;;;;5.42;3.37;;;;;;;22.28;27.13;100749.37;1779589;79;21192;-77
2021/09/09 13:00:43;;;;;;;7.65;3.30;;;;;;;22.28;27.10;100748.52;1774894;79;21192;-77
2021/09/09 13:03:50;;;;;;;12.15;3.40;;;;;;;22.27;27.06;100749.63;1773847;79;21163;-77
2021/09/09 13:06:56;;;;;;;6.72;3.10;;;;;;;22.26;26.99;100747.38;1778727;79;21638;-77
2021/09/09 13:10:00;;;;;;;15.00;3.30;;;;;;;22.26;26.50;100743.75;1778485;79;22308;-77
2021/09/09 13:13:04;;;;;;;6.17;3.02;;;;;;;22.24;26.42;100744.52;1783575;79;21283;-78
2021/09/09 13:16:31;;;;;;;8.90;3.25;;;;;;;22.24;26.69;100741.73;1760294;79;21276;-78
2021/09/09 13:19:40;;;;;;;8.58;2.98;;;;;;;22.22;26.95;100734.18;1778039;79;22770;-77
2021/09/09 13:22:46;;;;;;;5.05;3.33;;;;;;;22.19;26.85;100735.50;1776806;79;21303;-78
2021/09/09 13:25:53;;;;;;;9.03;3.45;;;;;;;22.15;26.64;100729.56;1782819;79;21298;-78
2021/09/09 13:28:58;;;;;;;4.70;3.05;;;;;;;22.11;26.69;100736.73;1786350;79;22423;-78
2021/09/09 13:32:03;;;;;;;12.28;2.95;;;;;;;22.06;26.94;100729.58;1780496;79;21327;-79
2021/09/09 13:35:09;;;;;;;12.25;3.10;;;;;;;22.02;26.99;100733.97;1780539;79;21366;-78
2021/09/09 13:38:20;;;;;;;7.10;3.37;;;;;;;22.01;27.12;100722.50;1789030;79;21272;-78
2021/09/09 13:41:26;;;;;;;6.58;3.20;;;;;;;21.98;27.13;100718.83;1798256;79;21343;-80
2021/09/09 13:44:53;;;;;;;8.68;3.30;;;;;;;21.95;27.40;100722.09;1784235;79;21597;-78
2021/09/09 13:47:58;;;;;;;6.12;3.15;;;;;;;21.93;27.83;100718.70;1765318;81;21177;-78
2021/09/09 13:51:03;;;;;;;7.78;3.10;;;;;;;21.91;27.65;100719.48;1765026;81;21323;-78
2021/09/09 13:54:08;;;;;;;11.93;3.80;;;;;;;21.88;27.70;100718.59;1796536;79;21295;-79
2021/09/09 13:57:14;;;;;;;6.17;2.92;;;;;;;21.86;27.80;100713.78;1771883;79;21666;-79
2021/09/09 14:00:21;;;;;;;11.65;3.70;;;;;;;21.82;27.96;100717.59;1764846;79;21210;-79
2021/09/09 14:03:27;;;;;;;6.42;3.67;;;;;;;21.78;28.34;100715.52;1760929;81;21312;-78
2021/09/09 14:06:36;;;;;;;13.68;3.92;;;;;;;21.74;28.08;100715.70;1765109;81;21348;-78
2021/09/09 14:09:41;;;;;;;10.25;3.60;;;;;;;21.74;27.96;100715.18;1766563;81;21166;-78
2021/09/09 14:12:47;;;;;;;8.63;3.62;;;;;;;21.75;28.02;100719.66;1767159;80;21189;-78
2021/09/09 14:15:53;;;;;;;14.58;4.00;;;;;;;21.77;28.19;100714.68;1767244;80;21185;-78
2021/09/09 14:18:59;;;;;;;13.43;3.80;;;;;;;21.79;27.99;100708.89;1767005;79;21158;-78
2021/09/09 14:22:05;;;;;;;10.65;3.98;;;;;;;21.80;28.16;100707.25;1766398;79;21253;-78
2021/09/09 14:25:11;;;;;;;8.05;4.30;;;;;;;21.81;28.02;100705.31;1766398;81;21291;-78
2021/09/09 14:28:17;;;;;;;5.47;3.25;;;;;;;21.79;27.74;100700.54;1769726;81;21191;-77
2021/09/09 14:31:22;;;;;;;7.08;3.37;;;;;;;21.77;27.76;100704.94;1770071;81;21282;-78